sensor_id;sensor_type;location;lat;lon;timestamp;pressure;altitude;pressure_sealevel;temperature;humidity
69982;BME280;57319;56.274;43.980;2024-02-21T00:01:56;100949.09;;;-8.03;94.08
69982;BME280;57319;56.274;43.980;2024-02-21T00:04:22;100949.38;;;-7.99;94.56
69982;BME280;57319;56.274;43.980;2024-02-21T00:06:47;100949.84;;;-7.93;95.64
69982;BME280;57319;56.274;43.980;2024-02-21T00:09:13;100944.72;;;-7.95;95.44
69982;BME280;57319;56.274;43.980;2024-02-21T00:11:38;100945.97;;;-7.90;96.14
69982;BME280;57319;56.274;43.980;2024-02-21T00:14:04;100945.22;;;-7.99;94.34
69982;BME280;57319;56.274;43.980;2024-02-21T00:16:29;100941.25;;;-8.07;93.40
69982;BME280;57319;56.274;43.980;2024-02-21T00:18:55;100938.75;;;-8.07;92.59
69982;BME280;57319;56.274;43.980;2024-02-21T00:21:21;100943.84;;;-7.85;95.09
69982;BME280;57319;56.274;43.980;2024-02-21T00:23:46;100942.09;;;-8.07;93.36
69982;BME280;57319;56.274;43.980;2024-02-21T00:26:13;100941.34;;;-7.85;95.31
69982;BME280;57319;56.274;43.980;2024-02-21T00:28:39;100935.72;;;-7.93;94.36
69982;BME280;57319;56.274;43.980;2024-02-21T00:31:04;100937.19;;;-7.85;95.78
69982;BME280;57319;56.274;43.980;2024-02-21T00:33:30;100941.34;;;-7.85;96.86
69982;BME280;57319;56.274;43.980;2024-02-21T00:35:56;100938.75;;;-8.07;95.07
69982;BME280;57319;56.274;43.980;2024-02-21T00:38:22;100934.59;;;-8.07;95.91
69982;BME280;57319;56.274;43.980;2024-02-21T00:40:48;100929.72;;;-7.95;97.28
69982;BME280;57319;56.274;43.980;2024-02-21T00:43:13;100938.59;;;-7.88;97.57
69982;BME280;57319;56.274;43.980;2024-02-21T00:45:39;100936.84;;;-7.89;98.27
69982;BME280;57319;56.274;43.980;2024-02-21T00:48:05;100934.09;;;-8.03;97.25
69982;BME280;57319;56.274;43.980;2024-02-21T00:50:30;100941.63;;;-8.13;96.79
69982;BME280;57319;56.274;43.980;2024-02-21T00:52:56;100937.22;;;-8.05;97.81
69982;BME280;57319;56.274;43.980;2024-02-21T00:55:22;100935.63;;;-8.25;96.28
69982;BME280;57319;56.274;43.980;2024-02-21T00:57:47;100939.13;;;-8.13;97.81
69982;BME280;57319;56.274;43.980;2024-02-21T01:00:13;100939.00;;;-8.14;97.16
69982;BME280;57319;56.274;43.980;2024-02-21T01:02:39;100935.63;;;-8.05;97.58
69982;BME280;57319;56.274;43.980;2024-02-21T01:05:05;100932.75;;;-8.20;96.52
69982;BME280;57319;56.274;43.980;2024-02-21T01:07:31;100933.38;;;-8.12;96.77
69982;BME280;57319;56.274;43.980;2024-02-21T01:09:56;100938.84;;;-8.06;98.11
69982;BME280;57319;56.274;43.980;2024-02-21T01:12:22;100934.22;;;-8.01;98.75
69982;BME280;57319;56.274;43.980;2024-02-21T01:14:47;100928.59;;;-7.98;98.88
69982;BME280;57319;56.274;43.980;2024-02-21T01:17:14;100930.13;;;-8.01;99.04
69982;BME280;57319;56.274;43.980;2024-02-21T01:19:40;100931.13;;;-8.09;98.83
69982;BME280;57319;56.274;43.980;2024-02-21T01:22:06;100931.00;;;-8.10;98.26
69982;BME280;57319;56.274;43.980;2024-02-21T01:24:31;100926.13;;;-8.09;98.58
69982;BME280;57319;56.274;43.980;2024-02-21T01:26:57;100921.38;;;-8.16;97.74
69982;BME280;57319;56.274;43.980;2024-02-21T01:29:23;100921.38;;;-8.06;98.60
69982;BME280;57319;56.274;43.980;2024-02-21T01:31:48;100924.25;;;-8.42;96.14
69982;BME280;57319;56.274;43.980;2024-02-21T01:34:14;100917.25;;;-8.15;97.39
69982;BME280;57319;56.274;43.980;2024-02-21T01:36:40;100918.75;;;-8.07;98.12
69982;BME280;57319;56.274;43.980;2024-02-21T01:39:07;100925.13;;;-8.11;98.00
69982;BME280;57319;56.274;43.980;2024-02-21T01:41:33;100929.13;;;-8.13;98.31
69982;BME280;57319;56.274;43.980;2024-02-21T01:43:59;100926.50;;;-8.14;98.39
69982;BME280;57319;56.274;43.980;2024-02-21T01:46:25;100926.75;;;-8.11;98.98
69982;BME280;57319;56.274;43.980;2024-02-21T01:48:56;100923.41;;;-8.53;96.60
69982;BME280;57319;56.274;43.980;2024-02-21T01:51:24;100926.88;;;-8.41;96.87
69982;BME280;57319;56.274;43.980;2024-02-21T01:53:51;100929.22;;;-8.42;96.77
69982;BME280;57319;56.274;43.980;2024-02-21T01:56:17;100931.50;;;-8.35;96.85
69982;BME280;57319;56.274;43.980;2024-02-21T01:58:43;100924.16;;;-8.54;95.70
69982;BME280;57319;56.274;43.980;2024-02-21T02:01:10;100923.50;;;-8.31;96.51
69982;BME280;57319;56.274;43.980;2024-02-21T02:03:36;100925.28;;;-8.61;95.51
69982;BME280;57319;56.274;43.980;2024-02-21T02:06:05;100923.03;;;-8.47;95.66
69982;BME280;57319;56.274;43.980;2024-02-21T02:08:31;100925.88;;;-8.22;98.03
69982;BME280;57319;56.274;43.980;2024-02-21T02:10:57;100922.63;;;-8.21;98.27
69982;BME280;57319;56.274;43.980;2024-02-21T02:13:23;100925.91;;;-8.32;97.94
69982;BME280;57319;56.274;43.980;2024-02-21T02:15:49;100917.00;;;-8.29;98.31
69982;BME280;57319;56.274;43.980;2024-02-21T02:18:16;100914.13;;;-8.44;97.79
69982;BME280;57319;56.274;43.980;2024-02-21T02:20:46;100910.78;;;-8.55;97.90
69982;BME280;57319;56.274;43.980;2024-02-21T02:23:32;100915.44;;;-8.49;98.59
69982;BME280;57319;56.274;43.980;2024-02-21T02:26:00;100920.03;;;-8.43;98.19
69982;BME280;57319;56.274;43.980;2024-02-21T02:28:28;100919.03;;;-8.45;97.85
69982;BME280;57319;56.274;43.980;2024-02-21T02:30:54;100915.03;;;-8.54;98.04
69982;BME280;57319;56.274;43.980;2024-02-21T02:33:20;100919.41;;;-8.51;97.79
69982;BME280;57319;56.274;43.980;2024-02-21T02:35:45;100915.16;;;-8.52;98.55
69982;BME280;57319;56.274;43.980;2024-02-21T02:38:11;100916.03;;;-8.62;98.24
69982;BME280;57319;56.274;43.980;2024-02-21T02:40:39;100915.53;;;-8.68;98.46
69982;BME280;57319;56.274;43.980;2024-02-21T02:43:06;100916.28;;;-8.59;98.05
69982;BME280;57319;56.274;43.980;2024-02-21T02:45:32;100916.28;;;-8.59;98.54
69982;BME280;57319;56.274;43.980;2024-02-21T02:47:58;100918.44;;;-8.53;98.94
69982;BME280;57319;56.274;43.980;2024-02-21T02:50:24;100909.78;;;-8.57;98.57
69982;BME280;57319;56.274;43.980;2024-02-21T02:52:50;100912.94;;;-8.49;99.15
69982;BME280;57319;56.274;43.980;2024-02-21T02:55:16;100913.19;;;-8.46;99.25
69982;BME280;57319;56.274;43.980;2024-02-21T02:57:42;100913.00;;;-8.78;96.13
69982;BME280;57319;56.274;43.980;2024-02-21T03:00:10;100910.03;;;-8.54;97.50
69982;BME280;57319;56.274;43.980;2024-02-21T03:02:38;100916.41;;;-8.78;94.91
69982;BME280;57319;56.274;43.980;2024-02-21T03:05:15;100915.03;;;-8.54;96.52
69982;BME280;57319;56.274;43.980;2024-02-21T03:07:41;100913.63;;;-8.40;97.17
69982;BME280;57319;56.274;43.980;2024-02-21T03:10:08;100910.78;;;-8.44;97.48
69982;BME280;57319;56.274;43.980;2024-02-21T03:12:34;100906.03;;;-8.41;97.87
69982;BME280;57319;56.274;43.980;2024-02-21T03:14:59;100906.03;;;-8.31;98.67
69982;BME280;57319;56.274;43.980;2024-02-21T03:17:26;100905.25;;;-8.30;98.10
69982;BME280;57319;56.274;43.980;2024-02-21T03:19:54;100907.75;;;-8.30;98.23
69982;BME280;57319;56.274;43.980;2024-02-21T03:22:25;100900.41;;;-8.28;98.08
69982;BME280;57319;56.274;43.980;2024-02-21T03:24:51;100902.03;;;-8.29;98.01
69982;BME280;57319;56.274;43.980;2024-02-21T03:27:16;100894.41;;;-8.30;97.79
69982;BME280;57319;56.274;43.980;2024-02-21T03:29:42;100904.28;;;-8.32;97.83
69982;BME280;57319;56.274;43.980;2024-02-21T03:32:09;100904.16;;;-8.33;97.93
69982;BME280;57319;56.274;43.980;2024-02-21T03:34:35;100896.78;;;-8.32;97.68
69982;BME280;57319;56.274;43.980;2024-02-21T03:37:01;100900.41;;;-8.28;97.89
69982;BME280;57319;56.274;43.980;2024-02-21T03:39:27;100906.03;;;-8.31;97.22
69982;BME280;57319;56.274;43.980;2024-02-21T03:41:52;100900.91;;;-8.22;97.92
69982;BME280;57319;56.274;43.980;2024-02-21T03:44:19;100898.53;;;-8.31;97.35
69982;BME280;57319;56.274;43.980;2024-02-21T03:46:44;100902.13;;;-8.27;96.60
69982;BME280;57319;56.274;43.980;2024-02-21T03:49:10;100906.13;;;-8.19;97.56
69982;BME280;57319;56.274;43.980;2024-02-21T03:51:36;100899.41;;;-8.30;96.32
69982;BME280;57319;56.274;43.980;2024-02-21T03:54:01;100900.91;;;-8.32;95.34
69982;BME280;57319;56.274;43.980;2024-02-21T03:56:27;100896.16;;;-8.29;94.93
69982;BME280;57319;56.274;43.980;2024-02-21T03:58:52;100904.94;;;-8.45;93.11
69982;BME280;57319;56.274;43.980;2024-02-21T04:01:18;100904.91;;;-8.35;93.72
69982;BME280;57319;56.274;43.980;2024-02-21T04:03:44;100908.50;;;-8.21;95.29
69982;BME280;57319;56.274;43.980;2024-02-21T04:06:10;100903.75;;;-8.07;95.87
69982;BME280;57319;56.274;43.980;2024-02-21T04:08:36;100905.50;;;-8.06;96.52
69982;BME280;57319;56.274;43.980;2024-02-21T04:11:01;100898.63;;;-8.09;96.69
69982;BME280;57319;56.274;43.980;2024-02-21T04:13:27;100899.38;;;-8.10;97.16
69982;BME280;57319;56.274;43.980;2024-02-21T04:15:53;100899.78;;;-8.15;96.54
69982;BME280;57319;56.274;43.980;2024-02-21T04:18:19;100900.91;;;-8.22;96.17
69982;BME280;57319;56.274;43.980;2024-02-21T04:20:44;100907.88;;;-8.18;96.58
69982;BME280;57319;56.274;43.980;2024-02-21T04:23:10;100911.00;;;-8.10;97.33
69982;BME280;57319;56.274;43.980;2024-02-21T04:25:36;100906.63;;;-8.13;97.15
69982;BME280;57319;56.274;43.980;2024-02-21T04:28:02;100903.91;;;-8.26;95.93
69982;BME280;57319;56.274;43.980;2024-02-21T04:30:28;100906.41;;;-8.16;96.52
69982;BME280;57319;56.274;43.980;2024-02-21T04:32:54;100899.81;;;-8.57;93.15
69982;BME280;57319;56.274;43.980;2024-02-21T04:35:20;100888.66;;;-8.40;94.11
69982;BME280;57319;56.274;43.980;2024-02-21T04:37:46;100901.91;;;-8.41;93.16
69982;BME280;57319;56.274;43.980;2024-02-21T04:40:11;100901.25;;;-8.18;95.69
69982;BME280;57319;56.274;43.980;2024-02-21T04:42:37;100905.03;;;-8.54;92.68
69982;BME280;57319;56.274;43.980;2024-02-21T04:45:03;100906.25;;;-8.18;95.43
69982;BME280;57319;56.274;43.980;2024-02-21T04:47:30;100897.41;;;-8.24;94.61
69982;BME280;57319;56.274;43.980;2024-02-21T04:49:56;100899.91;;;-8.35;94.38
69982;BME280;57319;56.274;43.980;2024-02-21T04:52:21;100896.75;;;-8.22;95.48
69982;BME280;57319;56.274;43.980;2024-02-21T04:54:47;100903.41;;;-8.22;95.47
69982;BME280;57319;56.274;43.980;2024-02-21T04:57:13;100902.78;;;-8.20;93.75
69982;BME280;57319;56.274;43.980;2024-02-21T04:59:45;100901.38;;;-8.06;93.72
69982;BME280;57319;56.274;43.980;2024-02-21T05:02:13;100903.63;;;-8.19;91.94
69982;BME280;57319;56.274;43.980;2024-02-21T05:04:40;100905.13;;;-8.01;92.77
69982;BME280;57319;56.274;43.980;2024-02-21T05:07:07;100897.75;;;-7.99;92.49
69982;BME280;57319;56.274;43.980;2024-02-21T05:09:33;100902.34;;;-7.83;92.80
69982;BME280;57319;56.274;43.980;2024-02-21T05:11:58;100905.59;;;-7.84;92.06
69982;BME280;57319;56.274;43.980;2024-02-21T05:14:25;100910.03;;;-8.23;90.31
69982;BME280;57319;56.274;43.980;2024-02-21T05:16:52;100907.47;;;-7.92;91.53
69982;BME280;57319;56.274;43.980;2024-02-21T05:19:18;100896.97;;;-7.77;92.09
69982;BME280;57319;56.274;43.980;2024-02-21T05:21:43;100909.53;;;-7.65;92.57
69982;BME280;57319;56.274;43.980;2024-02-21T05:24:09;100908.50;;;-8.00;90.72
69982;BME280;57319;56.274;43.980;2024-02-21T05:26:35;100912.47;;;-7.81;91.81
69982;BME280;57319;56.274;43.980;2024-02-21T05:29:00;100903.25;;;-8.03;90.94
69982;BME280;57319;56.274;43.980;2024-02-21T05:31:26;100913.44;;;-7.79;92.86
69982;BME280;57319;56.274;43.980;2024-02-21T05:34:07;100908.22;;;-7.82;92.79
69982;BME280;57319;56.274;43.980;2024-02-21T05:36:34;100906.84;;;-7.79;92.93
69982;BME280;57319;56.274;43.980;2024-02-21T05:38:59;100907.59;;;-7.80;94.03
69982;BME280;57319;56.274;43.980;2024-02-21T05:41:25;100904.63;;;-8.07;90.88
69982;BME280;57319;56.274;43.980;2024-02-21T05:43:50;100904.13;;;-7.92;91.92
69982;BME280;57319;56.274;43.980;2024-02-21T05:46:19;100901.84;;;-7.89;91.86
69982;BME280;57319;56.274;43.980;2024-02-21T05:48:45;100908.44;;;-7.79;92.19
69982;BME280;57319;56.274;43.980;2024-02-21T05:51:11;100901.63;;;-7.92;90.17
69982;BME280;57319;56.274;43.980;2024-02-21T05:53:36;100906.63;;;-8.03;87.92
69982;BME280;57319;56.274;43.980;2024-02-21T05:56:10;100908.31;;;-7.81;88.44
69982;BME280;57319;56.274;43.980;2024-02-21T05:58:36;100906.91;;;-7.57;92.12
69982;BME280;57319;56.274;43.980;2024-02-21T06:01:02;100905.00;;;-8.12;87.55
69982;BME280;57319;56.274;43.980;2024-02-21T06:03:29;100904.66;;;-7.64;91.03
69982;BME280;57319;56.274;43.980;2024-02-21T06:05:55;100902.47;;;-7.49;91.76
69982;BME280;57319;56.274;43.980;2024-02-21T06:08:21;100901.97;;;-7.45;91.88
69982;BME280;57319;56.274;43.980;2024-02-21T06:10:47;100898.00;;;-7.53;90.74
69982;BME280;57319;56.274;43.980;2024-02-21T06:13:14;100901.09;;;-7.45;91.30
69982;BME280;57319;56.274;43.980;2024-02-21T06:15:40;100901.72;;;-7.38;92.38
69982;BME280;57319;56.274;43.980;2024-02-21T06:18:06;100906.19;;;-7.34;92.50
69982;BME280;57319;56.274;43.980;2024-02-21T06:20:32;100902.44;;;-7.39;91.19
69982;BME280;57319;56.274;43.980;2024-02-21T06:22:58;100909.69;;;-7.74;88.32
69982;BME280;57319;56.274;43.980;2024-02-21T06:25:23;100907.38;;;-7.51;90.22
69982;BME280;57319;56.274;43.980;2024-02-21T06:27:49;100914.03;;;-7.61;89.33
69982;BME280;57319;56.274;43.980;2024-02-21T06:30:15;100913.09;;;-7.41;91.06
69982;BME280;57319;56.274;43.980;2024-02-21T06:32:40;100908.69;;;-7.34;91.10
69982;BME280;57319;56.274;43.980;2024-02-21T06:35:06;100911.25;;;-7.22;92.81
69982;BME280;57319;56.274;43.980;2024-02-21T06:37:32;100916.03;;;-7.25;92.39
69982;BME280;57319;56.274;43.980;2024-02-21T06:39:58;100918.75;;;-7.22;93.56
69982;BME280;57319;56.274;43.980;2024-02-21T06:42:25;100928.13;;;-7.19;93.13
69982;BME280;57319;56.274;43.980;2024-02-21T06:44:51;100923.31;;;-7.28;92.45
69982;BME280;57319;56.274;43.980;2024-02-21T06:47:17;100918.53;;;-7.25;92.79
69982;BME280;57319;56.274;43.980;2024-02-21T06:49:43;100921.00;;;-7.47;90.25
69982;BME280;57319;56.274;43.980;2024-02-21T06:52:13;100929.56;;;-7.33;93.02
69982;BME280;57319;56.274;43.980;2024-02-21T06:54:41;100931.34;;;-7.42;91.19
69982;BME280;57319;56.274;43.980;2024-02-21T06:57:07;100929.22;;;-7.38;91.91
69982;BME280;57319;56.274;43.980;2024-02-21T06:59:33;100937.69;;;-7.25;93.41
69982;BME280;57319;56.274;43.980;2024-02-21T07:01:59;100942.66;;;-7.58;89.09
69982;BME280;57319;56.274;43.980;2024-02-21T07:04:27;100939.19;;;-7.80;87.45
69982;BME280;57319;56.274;43.980;2024-02-21T07:06:54;100929.75;;;-7.52;90.74
69982;BME280;57319;56.274;43.980;2024-02-21T07:09:20;100934.25;;;-7.48;92.07
69982;BME280;57319;56.274;43.980;2024-02-21T07:11:46;100934.47;;;-7.45;91.60
69982;BME280;57319;56.274;43.980;2024-02-21T07:14:14;100942.81;;;-7.67;88.19
69982;BME280;57319;56.274;43.980;2024-02-21T07:16:40;100939.75;;;-7.42;90.57
69982;BME280;57319;56.274;43.980;2024-02-21T07:19:06;100941.16;;;-7.23;91.78
69982;BME280;57319;56.274;43.980;2024-02-21T07:21:32;100942.69;;;-7.25;89.92
69982;BME280;57319;56.274;43.980;2024-02-21T07:23:58;100932.50;;;-7.17;91.32
69982;BME280;57319;56.274;43.980;2024-02-21T07:26:23;100947.94;;;-7.33;89.27
69982;BME280;57319;56.274;43.980;2024-02-21T07:28:49;100944.19;;;-7.27;88.89
69982;BME280;57319;56.274;43.980;2024-02-21T07:31:15;100945.66;;;-7.19;88.71
69982;BME280;57319;56.274;43.980;2024-02-21T07:33:40;100939.19;;;-7.05;91.73
69982;BME280;57319;56.274;43.980;2024-02-21T07:36:10;100942.03;;;-7.23;88.48
69982;BME280;57319;56.274;43.980;2024-02-21T07:38:37;100943.50;;;-7.14;88.68
69982;BME280;57319;56.274;43.980;2024-02-21T07:41:02;100933.22;;;-7.07;89.09
69982;BME280;57319;56.274;43.980;2024-02-21T07:43:29;100934.09;;;-7.07;88.95
69982;BME280;57319;56.274;43.980;2024-02-21T07:45:55;100941.28;;;-7.00;87.99
69982;BME280;57319;56.274;43.980;2024-02-21T07:48:22;100938.34;;;-6.84;87.60
69982;BME280;57319;56.274;43.980;2024-02-21T07:50:52;100937.88;;;-6.68;88.00
69982;BME280;57319;56.274;43.980;2024-02-21T07:53:18;100942.59;;;-6.60;88.63
69982;BME280;57319;56.274;43.980;2024-02-21T07:55:43;100951.97;;;-6.58;86.72
69982;BME280;57319;56.274;43.980;2024-02-21T07:58:09;100954.19;;;-7.27;82.43
69982;BME280;57319;56.274;43.980;2024-02-21T08:00:35;100953.66;;;-6.69;90.27
69982;BME280;57319;56.274;43.980;2024-02-21T08:03:00;100949.28;;;-6.71;86.55
69982;BME280;57319;56.274;43.980;2024-02-21T08:05:26;100951.72;;;-6.61;88.67
69982;BME280;57319;56.274;43.980;2024-02-21T08:07:52;100951.56;;;-6.52;89.22
69982;BME280;57319;56.274;43.980;2024-02-21T08:10:17;100951.16;;;-6.69;85.91
69982;BME280;57319;56.274;43.980;2024-02-21T08:12:43;100958.19;;;-6.75;84.18
69982;BME280;57319;56.274;43.980;2024-02-21T08:15:09;100962.50;;;-6.40;85.85
69982;BME280;57319;56.274;43.980;2024-02-21T08:17:36;100960.81;;;-6.17;86.84
69982;BME280;57319;56.274;43.980;2024-02-21T08:20:03;100964.47;;;-6.36;82.45
69982;BME280;57319;56.274;43.980;2024-02-21T08:22:30;100966.78;;;-6.27;84.25
69982;BME280;57319;56.274;43.980;2024-02-21T08:24:56;100956.47;;;-6.08;81.46
69982;BME280;57319;56.274;43.980;2024-02-21T08:27:21;100960.41;;;-5.76;84.15
69982;BME280;57319;56.274;43.980;2024-02-21T08:29:47;100961.75;;;-5.57;85.01
69982;BME280;57319;56.274;43.980;2024-02-21T08:32:13;100965.75;;;-6.07;77.41
69982;BME280;57319;56.274;43.980;2024-02-21T08:34:39;100964.31;;;-6.15;81.25
69982;BME280;57319;56.274;43.980;2024-02-21T08:37:04;100959.53;;;-5.88;85.87
69982;BME280;57319;56.274;43.980;2024-02-21T08:39:30;100959.44;;;-5.66;87.96
69982;BME280;57319;56.274;43.980;2024-02-21T08:41:56;100958.56;;;-5.90;82.50
69982;BME280;57319;56.274;43.980;2024-02-21T08:44:23;100965.31;;;-5.89;82.38
69982;BME280;57319;56.274;43.980;2024-02-21T08:46:49;100957.47;;;-5.82;85.86
69982;BME280;57319;56.274;43.980;2024-02-21T08:49:15;100961.72;;;-5.81;86.64
69982;BME280;57319;56.274;43.980;2024-02-21T08:51:41;100967.72;;;-5.79;85.86
69982;BME280;57319;56.274;43.980;2024-02-21T08:54:08;100959.88;;;-5.72;88.49
69982;BME280;57319;56.274;43.980;2024-02-21T08:56:34;100958.44;;;-6.04;81.57
69982;BME280;57319;56.274;43.980;2024-02-21T08:59:01;100963.25;;;-5.83;83.32
69982;BME280;57319;56.274;43.980;2024-02-21T09:01:27;100969.22;;;-5.93;82.23
69982;BME280;57319;56.274;43.980;2024-02-21T09:03:54;100968.28;;;-5.71;85.62
69982;BME280;57319;56.274;43.980;2024-02-21T09:06:22;100972.75;;;-5.67;84.53
69982;BME280;57319;56.274;43.980;2024-02-21T09:08:48;100962.94;;;-5.64;84.81
69982;BME280;57319;56.274;43.980;2024-02-21T09:11:14;100963.72;;;-5.53;85.34
69982;BME280;57319;56.274;43.980;2024-02-21T09:13:41;100963.91;;;-5.62;84.57
69982;BME280;57319;56.274;43.980;2024-02-21T09:16:07;100964.69;;;-5.99;77.82
69982;BME280;57319;56.274;43.980;2024-02-21T09:18:34;100957.78;;;-5.77;84.50
69982;BME280;57319;56.274;43.980;2024-02-21T09:21:00;100959.69;;;-5.63;82.33
69982;BME280;57319;56.274;43.980;2024-02-21T09:23:26;100964.91;;;-5.48;83.56
69982;BME280;57319;56.274;43.980;2024-02-21T09:25:52;100958.91;;;-5.38;86.16
69982;BME280;57319;56.274;43.980;2024-02-21T09:28:18;100963.25;;;-5.48;84.14
69982;BME280;57319;56.274;43.980;2024-02-21T09:30:44;100960.88;;;-5.46;85.96
69982;BME280;57319;56.274;43.980;2024-02-21T09:33:11;100959.97;;;-5.82;80.92
69982;BME280;57319;56.274;43.980;2024-02-21T09:35:36;100952.38;;;-5.48;84.74
69982;BME280;57319;56.274;43.980;2024-02-21T09:38:02;100955.84;;;-5.46;81.71
69982;BME280;57319;56.274;43.980;2024-02-21T09:40:28;100959.31;;;-5.91;76.38
69982;BME280;57319;56.274;43.980;2024-02-21T09:43:03;100960.09;;;-5.57;79.91
69982;BME280;57319;56.274;43.980;2024-02-21T09:45:33;100948.88;;;-5.38;85.91
69982;BME280;57319;56.274;43.980;2024-02-21T09:50:26;100956.59;;;-5.23;85.28
69982;BME280;57319;56.274;43.980;2024-02-21T09:52:54;100948.09;;;-5.49;82.68
69982;BME280;57319;56.274;43.980;2024-02-21T09:55:20;100953.34;;;-5.46;78.76
69982;BME280;57319;56.274;43.980;2024-02-21T09:57:48;100944.41;;;-5.42;79.87
69982;BME280;57319;56.274;43.980;2024-02-21T10:00:21;100941.84;;;-5.19;83.69
69982;BME280;57319;56.274;43.980;2024-02-21T10:02:50;100944.16;;;-5.46;78.88
69982;BME280;57319;56.274;43.980;2024-02-21T10:05:16;100944.47;;;-5.29;79.96
69982;BME280;57319;56.274;43.980;2024-02-21T10:07:43;100941.84;;;-5.07;80.33
69982;BME280;57319;56.274;43.980;2024-02-21T10:10:09;100946.38;;;-4.89;84.64
69982;BME280;57319;56.274;43.980;2024-02-21T10:12:35;100945.00;;;-5.09;78.36
69982;BME280;57319;56.274;43.980;2024-02-21T10:15:02;100947.66;;;-4.83;83.94
69982;BME280;57319;56.274;43.980;2024-02-21T10:17:32;100942.19;;;-4.77;84.37
69982;BME280;57319;56.274;43.980;2024-02-21T10:20:12;100940.59;;;-5.00;78.59
69982;BME280;57319;56.274;43.980;2024-02-21T10:22:39;100944.59;;;-4.79;83.65
69982;BME280;57319;56.274;43.980;2024-02-21T10:25:09;100944.81;;;-5.36;75.46
69982;BME280;57319;56.274;43.980;2024-02-21T10:27:36;100929.19;;;-5.32;77.34
69982;BME280;57319;56.274;43.980;2024-02-21T10:30:02;100940.84;;;-4.97;82.48
69982;BME280;57319;56.274;43.980;2024-02-21T10:32:29;100934.38;;;-4.94;83.68
69982;BME280;57319;56.274;43.980;2024-02-21T10:35:03;100929.97;;;-4.84;83.42
69982;BME280;57319;56.274;43.980;2024-02-21T10:37:30;100924.41;;;-4.92;79.38
69982;BME280;57319;56.274;43.980;2024-02-21T10:39:56;100932.22;;;-4.75;79.86
69982;BME280;57319;56.274;43.980;2024-02-21T10:42:22;100918.13;;;-4.62;84.24
69982;BME280;57319;56.274;43.980;2024-02-21T10:44:51;100921.78;;;-4.56;84.52
69982;BME280;57319;56.274;43.980;2024-02-21T10:47:19;100925.03;;;-4.71;81.88
69982;BME280;57319;56.274;43.980;2024-02-21T10:49:50;100922.16;;;-4.64;82.23
69982;BME280;57319;56.274;43.980;2024-02-21T10:55:00;100910.97;;;-4.55;83.58
69982;BME280;57319;56.274;43.980;2024-02-21T10:57:29;100919.44;;;-4.67;80.60
69982;BME280;57319;56.274;43.980;2024-02-21T10:59:55;100909.53;;;-4.77;81.17
69982;BME280;57319;56.274;43.980;2024-02-21T11:02:23;100911.59;;;-5.08;78.29
69982;BME280;57319;56.274;43.980;2024-02-21T11:04:50;100906.72;;;-5.31;75.84
69982;BME280;57319;56.274;43.980;2024-02-21T11:07:18;100906.41;;;-5.23;75.12
69982;BME280;57319;56.274;43.980;2024-02-21T11:09:51;100906.06;;;-5.16;75.76
69982;BME280;57319;56.274;43.980;2024-02-21T11:12:21;100901.97;;;-5.02;78.22
69982;BME280;57319;56.274;43.980;2024-02-21T11:14:47;100901.72;;;-4.94;77.20
69982;BME280;57319;56.274;43.980;2024-02-21T11:17:17;100898.81;;;-5.12;81.49
69982;BME280;57319;56.274;43.980;2024-02-21T11:19:44;100896.94;;;-4.90;84.49
69982;BME280;57319;56.274;43.980;2024-02-21T11:22:17;100891.22;;;-4.88;84.26
69982;BME280;57319;56.274;43.980;2024-02-21T11:24:43;100896.84;;;-5.65;76.84
69982;BME280;57319;56.274;43.980;2024-02-21T11:27:15;100894.44;;;-5.02;83.69
69982;BME280;57319;56.274;43.980;2024-02-21T11:29:49;100895.25;;;-5.27;78.62
69982;BME280;57319;56.274;43.980;2024-02-21T11:32:19;100884.78;;;-5.33;77.06
69982;BME280;57319;56.274;43.980;2024-02-21T11:35:02;100889.53;;;-5.01;83.67
69982;BME280;57319;56.274;43.980;2024-02-21T11:37:35;100887.75;;;-5.02;82.17
69982;BME280;57319;56.274;43.980;2024-02-21T11:40:02;100885.59;;;-4.97;85.34
69982;BME280;57319;56.274;43.980;2024-02-21T11:42:29;100877.25;;;-4.96;85.61
69982;BME280;57319;56.274;43.980;2024-02-21T11:44:57;100881.34;;;-5.10;85.94
69982;BME280;57319;56.274;43.980;2024-02-21T11:47:23;100884.31;;;-5.16;83.18
69982;BME280;57319;56.274;43.980;2024-02-21T11:49:49;100891.97;;;-5.99;77.87
69982;BME280;57319;56.274;43.980;2024-02-21T11:52:21;100878.38;;;-5.41;85.00
69982;BME280;57319;56.274;43.980;2024-02-21T11:54:48;100879.94;;;-5.79;77.29
69982;BME280;57319;56.274;43.980;2024-02-21T11:57:14;100884.53;;;-5.85;77.64
69982;BME280;57319;56.274;43.980;2024-02-21T11:59:40;100892.81;;;-5.86;77.57
69982;BME280;57319;56.274;43.980;2024-02-21T12:02:06;100884.50;;;-5.50;83.40
69982;BME280;57319;56.274;43.980;2024-02-21T12:04:32;100888.00;;;-5.83;78.43
69982;BME280;57319;56.274;43.980;2024-02-21T12:06:58;100890.69;;;-6.39;77.15
69982;BME280;57319;56.274;43.980;2024-02-21T12:09:24;100882.69;;;-6.00;77.52
69982;BME280;57319;56.274;43.980;2024-02-21T12:12:19;100884.06;;;-5.68;79.77
69982;BME280;57319;56.274;43.980;2024-02-21T12:14:45;100878.78;;;-5.23;83.98
69982;BME280;57319;56.274;43.980;2024-02-21T12:17:10;100877.50;;;-5.42;78.50
69982;BME280;57319;56.274;43.980;2024-02-21T12:19:36;100888.56;;;-5.15;83.67
69982;BME280;57319;56.274;43.980;2024-02-21T12:22:02;100881.53;;;-5.32;79.81
69982;BME280;57319;56.274;43.980;2024-02-21T12:24:31;100884.22;;;-5.17;81.92
69982;BME280;57319;56.274;43.980;2024-02-21T12:26:57;100879.63;;;-5.11;83.15
69982;BME280;57319;56.274;43.980;2024-02-21T12:29:24;100881.81;;;-5.16;84.48
69982;BME280;57319;56.274;43.980;2024-02-21T12:31:50;100879.00;;;-5.32;81.01
69982;BME280;57319;56.274;43.980;2024-02-21T12:34:16;100877.50;;;-5.30;84.56
69982;BME280;57319;56.274;43.980;2024-02-21T12:36:44;100876.84;;;-5.28;85.85
69982;BME280;57319;56.274;43.980;2024-02-21T12:39:10;100874.66;;;-5.35;85.18
69982;BME280;57319;56.274;43.980;2024-02-21T12:41:37;100875.66;;;-5.45;84.10
69982;BME280;57319;56.274;43.980;2024-02-21T12:44:09;100869.78;;;-5.45;83.25